createdAt,value
2019-05-11T00:01:18.657Z,9.97
2019-05-11T00:06:24.101Z,9.70
2019-05-11T00:11:29.582Z,9.27
2019-05-11T00:16:35.010Z,7.70
2019-05-11T00:21:40.341Z,8.53
2019-05-11T00:26:45.678Z,7.80
2019-05-11T00:31:51.855Z,8.63
2019-05-11T00:36:57.402Z,8.03
2019-05-11T00:42:02.882Z,8.27
2019-05-11T00:47:08.286Z,8.90
2019-05-11T00:52:13.681Z,8.07
2019-05-11T00:57:18.977Z,8.60
2019-05-11T01:02:24.349Z,7.83
2019-05-11T01:07:29.866Z,8.15
2019-05-11T01:12:35.336Z,7.57
2019-05-11T01:17:40.665Z,7.43
2019-05-11T01:22:45.996Z,9.23
2019-05-11T01:27:51.585Z,8.70
2019-05-11T01:32:57.058Z,7.12
2019-05-11T01:38:02.394Z,8.07
2019-05-11T01:43:07.759Z,4.93
2019-05-11T01:48:13.158Z,4.87
2019-05-11T01:53:20.690Z,4.73
2019-05-11T01:58:26.686Z,5.17
2019-05-11T02:03:35.823Z,4.67
2019-05-11T02:08:41.782Z,4.77
2019-05-11T02:13:47.480Z,5.13
2019-05-11T02:18:55.718Z,5.00
2019-05-11T02:24:02.742Z,3.93
2019-05-11T02:29:08.955Z,5.67
2019-05-11T02:34:16.691Z,2.67
2019-05-11T02:39:23.717Z,4.67
2019-05-11T02:44:30.591Z,8.90
2019-05-11T02:49:38.742Z,3.70
2019-05-11T02:54:46.943Z,3.93
2019-05-11T02:59:52.767Z,2.40
2019-05-11T03:04:58.700Z,2.90
2019-05-11T03:10:06.211Z,3.03
2019-05-11T03:15:13.284Z,4.27
2019-05-11T03:20:20.732Z,3.40
2019-05-11T03:25:28.509Z,3.47
2019-05-11T03:30:35.855Z,8.60
2019-05-11T03:35:42.349Z,2.23
2019-05-11T03:40:48.901Z,4.80
2019-05-11T03:45:55.565Z,3.33
2019-05-11T03:51:05.863Z,3.03
2019-05-11T03:56:12.091Z,2.97
2019-05-11T04:01:18.359Z,3.03
2019-05-11T04:06:24.512Z,5.43
2019-05-11T04:11:30.895Z,3.97
2019-05-11T04:16:37.943Z,2.40
2019-05-11T04:21:44.942Z,1.77
2019-05-11T04:26:53.170Z,4.03
2019-05-11T04:32:00.220Z,3.50
2019-05-11T04:37:07.082Z,7.90
2019-05-11T04:42:15.424Z,2.53
2019-05-11T04:47:21.874Z,2.50
2019-05-11T04:52:37.231Z,2.87
2019-05-11T04:57:43.078Z,2.73
2019-05-11T05:02:50.741Z,1.50
2019-05-11T05:08:09.261Z,2.70
2019-05-11T05:13:10.589Z,3.10
2019-05-11T05:18:16.109Z,4.40
2019-05-11T05:23:22.940Z,4.13
2019-05-11T05:28:29.334Z,4.10
2019-05-11T05:33:35.444Z,2.95
2019-05-11T05:38:42.622Z,2.62
2019-05-11T05:43:49.055Z,3.33
2019-05-11T05:48:55.124Z,4.12
2019-05-11T05:54:01.495Z,3.23
2019-05-11T05:59:07.876Z,2.70
2019-05-11T06:04:15.019Z,4.67
2019-05-11T06:09:21.412Z,3.13
2019-05-11T06:14:27.306Z,2.70
2019-05-11T06:19:35.537Z,1.75
2019-05-11T06:24:42.775Z,3.62
2019-05-11T06:29:49.890Z,3.63
2019-05-11T06:34:55.449Z,2.40
2019-05-11T06:40:01.567Z,3.80
2019-05-11T06:45:10.032Z,1.83
2019-05-11T06:50:17.690Z,3.95
2019-05-11T06:55:25.989Z,3.07
2019-05-11T07:00:32.692Z,1.10
2019-05-11T07:05:38.050Z,3.93
2019-05-11T07:10:45.531Z,2.67
2019-05-11T07:15:52.834Z,2.83
2019-05-11T07:20:59.508Z,3.00
2019-05-11T07:26:06.595Z,4.00
2019-05-11T07:31:16.511Z,2.67
2019-05-11T07:36:23.710Z,4.07
2019-05-11T07:41:30.498Z,5.30
2019-05-11T07:46:37.705Z,3.10
2019-05-11T07:51:44.631Z,2.70
2019-05-11T07:56:51.250Z,3.10
2019-05-11T08:02:14.030Z,4.90
2019-05-11T08:07:20.304Z,4.93
2019-05-11T08:12:28.482Z,4.07
2019-05-11T08:17:37.937Z,4.80
2019-05-11T08:22:43.750Z,5.30
2019-05-11T08:27:51.066Z,4.53
2019-05-11T08:32:58.456Z,2.87
2019-05-11T08:38:05.555Z,2.97
2019-05-11T08:43:11.102Z,4.07
2019-05-11T08:48:18.547Z,9.90
2019-05-11T08:53:25.497Z,4.33
2019-05-11T08:58:34.434Z,3.37
2019-05-11T09:03:41.814Z,3.67
2019-05-11T09:08:49.489Z,4.23
2019-05-11T09:13:57.853Z,3.97
2019-05-11T09:19:05.362Z,4.30
2019-05-11T09:24:12.530Z,8.67
2019-05-11T09:29:19.870Z,4.00
2019-05-11T09:34:28.853Z,4.13
2019-05-11T09:39:34.719Z,6.57
2019-05-11T09:44:41.438Z,2.97
2019-05-11T09:49:50.847Z,3.60
2019-05-11T09:54:58.018Z,10.90
2019-05-11T10:00:04.355Z,3.93
2019-05-11T10:05:11.486Z,3.33
2019-05-11T10:10:18.848Z,3.03
2019-05-11T10:15:27.792Z,3.77
2019-05-11T10:20:34.915Z,7.08
2019-05-11T10:25:41.267Z,6.58
2019-05-11T10:30:48.771Z,5.80
2019-05-11T10:35:55.402Z,7.93
2019-05-11T10:41:02.037Z,5.63
2019-05-11T10:46:18.771Z,6.97
2019-05-11T10:51:18.355Z,7.47
2019-05-11T10:56:25.662Z,10.33
2019-05-11T11:01:32.969Z,7.77
2019-05-11T11:06:40.326Z,13.10
2019-05-11T11:11:50.535Z,7.77
2019-05-11T11:17:00.433Z,7.03
2019-05-11T11:22:30.301Z,9.50
2019-05-11T11:27:19.386Z,3.87
2019-05-11T11:32:27.824Z,6.23
2019-05-11T11:37:34.366Z,5.08
2019-05-11T11:42:41.119Z,8.15
2019-05-11T11:47:49.343Z,5.20
2019-05-11T11:52:57.819Z,6.30
2019-05-11T11:58:05.106Z,6.07
2019-05-11T12:03:10.958Z,5.37
2019-05-11T12:08:18.831Z,6.83
2019-05-11T12:13:27.480Z,4.10
2019-05-11T12:18:34.155Z,4.23
2019-05-11T12:23:40.746Z,6.40
2019-05-11T12:28:49.061Z,12.20
2019-05-11T12:34:05.800Z,5.47
2019-05-11T12:39:12.793Z,3.90
2019-05-11T12:44:19.226Z,5.97
2019-05-11T12:49:28.911Z,4.40
2019-05-11T12:54:35.306Z,4.50
2019-05-11T12:59:40.726Z,3.97
2019-05-11T13:04:47.981Z,7.27
2019-05-11T13:09:53.751Z,6.00
2019-05-11T13:15:02.527Z,2.60
2019-05-11T13:20:13.045Z,6.57
2019-05-11T13:25:19.185Z,8.07
2019-05-11T13:30:27.820Z,4.13
2019-05-11T13:35:33.874Z,4.53
2019-05-11T13:40:39.927Z,7.30
2019-05-11T13:45:47.778Z,6.90
2019-05-11T13:50:53.965Z,7.00
2019-05-11T13:56:00.178Z,3.70
2019-05-11T14:01:08.085Z,4.40
2019-05-11T14:06:15.506Z,6.17
2019-05-11T14:11:21.275Z,3.77
2019-05-11T14:16:27.835Z,3.90
2019-05-11T14:21:34.747Z,3.07
2019-05-11T14:26:40.671Z,5.97
2019-05-11T14:31:48.869Z,2.93
2019-05-11T14:36:55.125Z,2.90
2019-05-11T14:42:01.426Z,3.90
2019-05-11T14:47:08.536Z,3.30
2019-05-11T14:52:14.974Z,7.53
2019-05-11T14:57:21.589Z,4.03
2019-05-11T15:02:37.797Z,9.10
2019-05-11T15:07:43.680Z,7.37
2019-05-11T15:12:50.083Z,6.23
2019-05-11T15:17:58.160Z,10.70
2019-05-11T15:23:05.013Z,8.20
2019-05-11T15:28:11.173Z,5.70
2019-05-11T15:33:18.321Z,8.00
2019-05-11T15:38:24.806Z,9.23
2019-05-11T15:43:31.325Z,8.35
2019-05-11T15:48:58.448Z,9.50
2019-05-11T15:53:53.550Z,7.97
2019-05-11T15:58:59.058Z,8.73
2019-05-11T16:04:05.059Z,6.77
2019-05-11T16:09:13.874Z,11.30
2019-05-11T16:14:19.627Z,7.10
2019-05-11T16:19:27.985Z,8.30
2019-05-11T16:24:34.126Z,10.00
2019-05-11T16:29:40.595Z,7.30
2019-05-11T16:34:46.974Z,6.80
2019-05-11T16:39:53.610Z,9.27
2019-05-11T16:45:00.063Z,6.20
2019-05-11T16:50:08.378Z,6.27
2019-05-11T16:55:15.350Z,8.63
2019-05-11T17:00:22.789Z,7.50
2019-05-11T17:05:33.253Z,10.03
2019-05-11T17:10:36.625Z,8.47
2019-05-11T17:15:43.323Z,6.50
2019-05-11T17:20:49.267Z,8.63
2019-05-11T17:25:57.923Z,10.70
2019-05-11T17:31:03.542Z,7.70
2019-05-11T17:36:09.366Z,13.17
2019-05-11T17:41:15.035Z,11.67
2019-05-11T17:46:22.204Z,10.57
2019-05-11T17:51:28.621Z,12.27
2019-05-11T17:56:35.345Z,10.33
2019-05-11T18:01:42.023Z,13.35
2019-05-11T18:06:48.503Z,9.07
2019-05-11T18:11:54.825Z,12.87
2019-05-11T18:17:00.891Z,10.23
2019-05-11T18:22:08.316Z,14.13
2019-05-11T18:27:14.532Z,12.70
2019-05-11T18:32:20.471Z,13.77
2019-05-11T18:37:28.094Z,10.90
2019-05-11T18:42:33.928Z,15.23
2019-05-11T18:47:39.968Z,11.33
2019-05-11T18:52:48.576Z,9.03
2019-05-11T18:57:53.751Z,10.70
2019-05-11T19:02:59.650Z,12.17
2019-05-11T19:08:06.005Z,13.77
2019-05-11T19:13:11.583Z,11.50
2019-05-11T19:18:17.868Z,8.00
2019-05-11T19:23:23.630Z,6.77
2019-05-11T19:28:30.324Z,8.97
2019-05-11T19:33:38.208Z,7.03
2019-05-11T19:38:43.804Z,9.20
2019-05-11T19:43:50.517Z,7.60
2019-05-11T19:48:58.110Z,5.90
2019-05-11T19:54:04.489Z,8.80
2019-05-11T19:59:10.689Z,10.20
2019-05-11T20:04:18.807Z,9.47
2019-05-11T20:09:28.311Z,11.53
2019-05-11T20:14:34.044Z,11.63
2019-05-11T20:19:40.789Z,20.47
2019-05-11T20:24:47.657Z,4.93
2019-05-11T20:29:54.419Z,7.50
2019-05-11T20:35:00.911Z,7.47
2019-05-11T20:40:09.088Z,9.20
2019-05-11T20:45:14.389Z,6.63
2019-05-11T20:50:20.600Z,7.13
2019-05-11T20:55:28.436Z,12.07
2019-05-11T21:00:35.630Z,16.93
2019-05-11T21:05:42.481Z,16.10
2019-05-11T21:10:49.049Z,17.70
2019-05-11T21:15:55.929Z,7.40
2019-05-11T21:21:01.550Z,4.47
2019-05-11T21:26:09.973Z,6.13
2019-05-11T21:31:18.635Z,5.47
2019-05-11T21:36:24.450Z,8.20
2019-05-11T21:41:31.236Z,6.85
2019-05-11T21:46:38.870Z,4.28
2019-05-11T21:51:45.468Z,4.70
2019-05-11T21:56:51.120Z,4.60
2019-05-11T22:01:57.562Z,7.30
2019-05-11T22:07:03.743Z,6.37
2019-05-11T22:12:10.782Z,3.30
2019-05-11T22:17:18.194Z,5.87
2019-05-11T22:22:28.534Z,5.13
2019-05-11T22:27:33.809Z,8.55
2019-05-11T22:32:39.449Z,5.08
2019-05-11T22:37:45.829Z,4.50
2019-05-11T22:42:53.103Z,10.10
2019-05-11T22:48:00.048Z,6.97
2019-05-11T22:53:05.530Z,8.03
2019-05-11T22:58:11.723Z,7.00
2019-05-11T23:03:19.878Z,5.00
2019-05-11T23:08:26.401Z,5.87
2019-05-11T23:13:33.622Z,6.40
2019-05-11T23:18:41.168Z,7.30
2019-05-11T23:23:47.892Z,4.77
2019-05-11T23:28:53.943Z,6.93
2019-05-11T23:33:59.821Z,8.90
2019-05-11T23:39:08.972Z,4.83
2019-05-11T23:44:14.461Z,4.77
2019-05-11T23:49:20.581Z,7.57
2019-05-11T23:54:27.795Z,8.50
2019-05-11T23:59:34.209Z,4.20
